createdAt,value
2022-12-13T00:51:39.653Z,-1.47
2022-12-13T01:52:31.483Z,-1.88
2022-12-13T01:55:43.237Z,-1.92
2022-12-13T02:29:30.548Z,-2.23
2022-12-13T02:32:44.722Z,-2.23
2022-12-13T02:35:31.900Z,-2.21
2022-12-13T03:32:41.553Z,-2.47
2022-12-13T03:47:50.529Z,-2.50
2022-12-13T03:57:37.353Z,-2.52
2022-12-13T04:00:53.356Z,-2.53
2022-12-13T04:11:13.372Z,-2.57
2022-12-13T04:14:22.322Z,-2.58
2022-12-13T04:17:19.002Z,-2.58
2022-12-13T04:20:05.770Z,-2.59
2022-12-13T04:23:09.822Z,-2.62
2022-12-13T04:26:24.758Z,-2.63
2022-12-13T04:29:08.304Z,-2.62
2022-12-13T04:32:26.831Z,-2.67
2022-12-13T04:35:47.496Z,-2.70
2022-12-13T04:38:29.771Z,-2.73
2022-12-13T04:41:43.498Z,-2.75
2022-12-13T04:44:46.245Z,-2.77
2022-12-13T04:48:00.341Z,-2.75
2022-12-13T04:50:56.375Z,-2.75
2022-12-13T04:57:31.524Z,-2.73
2022-12-13T05:01:16.353Z,-2.76
2022-12-13T05:03:33.798Z,-2.76
2022-12-13T05:06:44.728Z,-2.76
2022-12-13T05:09:30.243Z,-2.76
2022-12-13T05:12:44.016Z,-2.78
2022-12-13T05:15:35.820Z,-2.77
2022-12-13T07:15:45.444Z,-3.36
2022-12-13T07:19:35.621Z,-3.37
2022-12-13T07:30:44.828Z,-3.47
2022-12-13T07:56:04.483Z,-3.34
2022-12-13T08:14:03.793Z,-3.27
2022-12-13T09:42:01.101Z,-1.52
2022-12-13T09:44:44.009Z,-1.49
2022-12-13T09:47:23.985Z,-1.41
2022-12-13T09:49:53.876Z,-1.35
2022-12-13T09:52:26.032Z,-1.30
2022-12-13T09:55:02.148Z,-1.26
2022-12-13T09:57:34.373Z,-1.22
2022-12-13T10:00:06.606Z,-1.18
2022-12-13T10:02:45.625Z,-1.16
2022-12-13T10:05:22.281Z,-1.11
2022-12-13T10:07:55.967Z,-1.05
2022-12-13T10:10:23.847Z,-1.01
2022-12-13T10:12:59.358Z,-0.94
2022-12-13T10:15:28.361Z,-0.93
2022-12-13T10:17:56.683Z,-0.91
2022-12-13T10:20:29.012Z,-0.91
2022-12-13T10:23:31.170Z,-0.91
2022-12-13T10:25:50.734Z,-0.93
2022-12-13T10:28:27.402Z,-0.91
2022-12-13T10:30:56.182Z,-0.88
2022-12-13T10:33:27.103Z,-0.86
2022-12-13T10:36:06.882Z,-0.83
2022-12-13T10:38:38.363Z,-0.78
2022-12-13T10:41:30.899Z,-0.74
2022-12-13T10:44:16.040Z,-0.71
2022-12-13T10:46:50.121Z,-0.72
2022-12-13T10:49:20.888Z,-0.68
2022-12-13T10:51:50.359Z,-0.69
2022-12-13T10:54:23.314Z,-0.64
2022-12-13T10:56:53.998Z,-0.59
2022-12-13T10:59:32.051Z,-0.56
2022-12-13T11:02:01.746Z,-0.56
2022-12-13T11:04:31.655Z,-0.51
2022-12-13T11:07:01.228Z,-0.47
2022-12-13T11:09:39.102Z,-0.42
2022-12-13T11:12:15.226Z,-0.36
2022-12-13T11:14:56.698Z,-0.33
2022-12-13T11:17:27.550Z,-0.29
2022-12-13T11:19:58.602Z,-0.31
2022-12-13T11:22:29.678Z,-0.26
2022-12-13T11:25:02.770Z,-0.18
2022-12-13T11:27:48.107Z,-0.10
2022-12-13T11:30:37.453Z,-0.09
2022-12-13T11:33:15.631Z,-0.02
2022-12-13T11:35:58.865Z,0.03
2022-12-13T11:38:34.827Z,0.05
2022-12-13T11:41:12.743Z,0.08
2022-12-13T11:44:04.673Z,0.12
2022-12-13T11:46:42.568Z,0.21
2022-12-13T11:49:20.453Z,0.30
2022-12-13T11:51:53.252Z,0.40
2022-12-13T11:54:30.756Z,0.49
2022-12-13T11:57:01.125Z,0.59
2022-12-13T11:59:42.319Z,0.64
2022-12-13T12:02:20.662Z,0.67
2022-12-13T12:04:58.141Z,0.65
2022-12-13T12:07:35.719Z,0.63
2022-12-13T12:10:16.622Z,0.66
2022-12-13T12:12:51.725Z,0.71
2022-12-13T12:15:27.104Z,0.76
2022-12-13T12:17:57.218Z,0.82
2022-12-13T12:20:48.350Z,0.82
2022-12-13T12:23:24.410Z,0.85
2022-12-13T12:25:56.958Z,0.87
2022-12-13T12:28:35.899Z,0.86
2022-12-13T12:31:20.130Z,0.89
2022-12-13T12:34:07.286Z,0.91
2022-12-13T12:36:50.416Z,0.87
2022-12-13T12:39:40.551Z,0.82
2022-12-13T12:42:26.880Z,0.80
2022-12-13T12:45:54.756Z,0.77
2022-12-13T12:48:52.003Z,0.75
2022-12-13T12:51:22.410Z,0.79
2022-12-13T12:53:55.840Z,0.81
2022-12-13T12:56:39.893Z,0.75
2022-12-13T12:59:16.509Z,0.74
2022-12-13T13:01:56.295Z,0.78
2022-12-13T13:04:30.897Z,0.80
2022-12-13T13:07:23.367Z,0.81
2022-12-13T13:09:54.700Z,0.83
2022-12-13T13:12:28.966Z,0.88
2022-12-13T13:14:59.008Z,0.90
2022-12-13T13:17:53.639Z,0.93
2022-12-13T13:20:25.817Z,0.96
2022-12-13T13:23:17.478Z,0.99
2022-12-13T13:28:44.434Z,1.06
2022-12-13T13:31:12.823Z,1.03
2022-12-13T13:33:47.198Z,1.05
2022-12-13T13:36:47.876Z,1.07
2022-12-13T13:39:37.369Z,1.08
2022-12-13T13:42:19.283Z,1.01
2022-12-13T13:45:19.173Z,1.01
2022-12-13T13:47:58.895Z,1.01
2022-12-13T13:51:01.726Z,1.06
2022-12-13T13:54:01.243Z,1.04
2022-12-13T13:56:40.298Z,0.94
2022-12-13T13:59:42.286Z,0.98
2022-12-13T14:03:09.084Z,1.06
2022-12-13T14:06:29.027Z,1.02
2022-12-13T14:09:22.774Z,1.05
2022-12-13T14:12:43.161Z,1.05
2022-12-13T14:15:39.497Z,1.02
2022-12-13T14:18:46.015Z,0.99
2022-12-13T14:21:25.528Z,0.92
2022-12-13T14:24:09.426Z,0.90
2022-12-13T14:26:52.580Z,0.90
2022-12-13T14:29:30.655Z,0.91
2022-12-13T14:31:59.508Z,0.87
2022-12-13T14:34:29.541Z,0.85
2022-12-13T14:36:59.410Z,0.88
2022-12-13T14:39:29.591Z,0.86
2022-12-13T14:41:59.457Z,0.84
2022-12-13T14:44:31.426Z,0.83
2022-12-13T14:47:02.009Z,0.84
2022-12-13T14:56:28.773Z,0.77
2022-12-13T14:58:59.116Z,0.76
2022-12-13T15:01:31.442Z,0.72
2022-12-13T15:04:20.542Z,0.72
2022-12-13T15:06:51.784Z,0.68
2022-12-13T15:09:19.979Z,0.62
2022-12-13T15:11:51.941Z,0.64
2022-12-13T15:14:22.677Z,0.62
2022-12-13T15:16:54.627Z,0.61
2022-12-13T15:19:31.060Z,0.60
2022-12-13T15:22:03.907Z,0.62
2022-12-13T15:24:35.407Z,0.62
2022-12-13T15:27:04.474Z,0.63
2022-12-13T15:29:35.481Z,0.62
2022-12-13T15:32:05.736Z,0.60
2022-12-13T15:34:36.470Z,0.58
2022-12-13T15:37:07.792Z,0.55
2022-12-13T15:39:58.725Z,0.54
2022-12-13T15:42:32.345Z,0.53
2022-12-13T15:45:02.528Z,0.50
2022-12-13T15:47:32.850Z,0.47
2022-12-13T15:50:02.888Z,0.49
2022-12-13T15:52:35.557Z,0.45
2022-12-13T15:55:28.846Z,0.40
2022-12-13T15:57:58.736Z,0.40
2022-12-13T16:00:32.301Z,0.36
2022-12-13T16:03:08.935Z,0.31
2022-12-13T16:05:40.018Z,0.34
2022-12-13T16:08:17.468Z,0.34
2022-12-13T16:10:48.635Z,0.34
2022-12-13T16:13:26.695Z,0.34
2022-12-13T16:16:00.488Z,0.34
2022-12-13T16:18:46.643Z,0.35
2022-12-13T16:21:14.695Z,0.36
2022-12-13T16:23:48.711Z,0.36
2022-12-13T16:26:22.462Z,0.34
2022-12-13T16:28:50.476Z,0.35
2022-12-13T16:31:21.065Z,0.30
2022-12-13T16:33:50.785Z,0.30
2022-12-13T16:36:18.850Z,0.27
2022-12-13T16:38:46.922Z,0.25
2022-12-13T16:41:16.421Z,0.27
2022-12-13T16:43:52.822Z,0.29
2022-12-13T16:47:12.341Z,0.30
2022-12-13T16:49:20.581Z,0.32
2022-12-13T16:51:49.286Z,0.31
2022-12-13T16:54:18.992Z,0.34
2022-12-13T16:56:47.086Z,0.32
2022-12-13T16:59:16.085Z,0.34
2022-12-13T17:01:45.487Z,0.32
2022-12-13T17:04:21.003Z,0.36
2022-12-13T17:06:51.206Z,0.37
2022-12-13T17:09:23.465Z,0.32
2022-12-13T17:11:51.275Z,0.29
2022-12-13T17:14:19.319Z,0.30
2022-12-13T17:16:47.481Z,0.24
2022-12-13T17:19:17.523Z,0.21
2022-12-13T17:21:45.688Z,0.23
2022-12-13T17:24:13.709Z,0.24
2022-12-13T17:26:53.982Z,0.24
2022-12-13T17:29:22.913Z,0.24
2022-12-13T17:31:53.508Z,0.23
2022-12-13T17:34:23.114Z,0.27
2022-12-13T17:36:51.252Z,0.25
2022-12-13T17:39:19.763Z,0.28
2022-12-13T17:41:54.747Z,0.31
2022-12-13T17:44:24.506Z,0.29
2022-12-13T17:46:55.099Z,0.30
2022-12-13T17:49:25.439Z,0.29
2022-12-13T17:51:54.508Z,0.29
2022-12-13T17:54:23.713Z,0.27
2022-12-13T17:56:51.892Z,0.28
2022-12-13T17:59:20.099Z,0.26
2022-12-13T18:01:48.365Z,0.28
2022-12-13T18:04:16.824Z,0.27
2022-12-13T18:06:46.465Z,0.21
2022-12-13T18:09:15.034Z,0.19
2022-12-13T18:11:43.397Z,0.23
2022-12-13T18:14:11.445Z,0.21
2022-12-13T18:16:39.682Z,0.20
2022-12-13T18:19:09.455Z,0.16
2022-12-13T18:21:37.947Z,0.17
2022-12-13T18:24:08.147Z,0.15
2022-12-13T18:26:36.199Z,0.15
2022-12-13T18:29:04.947Z,0.13
2022-12-13T18:31:33.312Z,0.14
2022-12-13T18:34:01.609Z,0.13
2022-12-13T18:36:30.031Z,0.13
2022-12-13T18:38:58.175Z,0.08
2022-12-13T18:41:29.152Z,0.09
2022-12-13T18:43:59.492Z,0.09
2022-12-13T18:46:29.158Z,0.11
2022-12-13T18:48:57.867Z,0.12
2022-12-13T18:51:26.772Z,0.13
2022-12-13T18:53:56.932Z,0.16
2022-12-13T18:56:28.938Z,0.17
2022-12-13T18:58:59.594Z,0.17
2022-12-13T19:01:33.257Z,0.20
2022-12-13T19:04:04.165Z,0.17
2022-12-13T19:06:32.114Z,0.17
2022-12-13T19:10:06.882Z,0.19
2022-12-13T19:12:35.123Z,0.14
2022-12-13T19:15:05.123Z,0.12
2022-12-13T19:17:34.187Z,0.09
2022-12-13T19:20:02.378Z,0.09
2022-12-13T19:22:32.989Z,0.08
2022-12-13T19:25:01.090Z,0.08
2022-12-13T19:27:31.132Z,0.07
2022-12-13T19:29:59.501Z,0.06
2022-12-13T19:32:29.821Z,0.09
2022-12-13T19:34:58.157Z,0.04
2022-12-13T19:37:26.127Z,0.03
2022-12-13T19:39:55.758Z,0.03
2022-12-13T19:42:24.369Z,-0.01
2022-12-13T19:44:53.506Z,-0.07
2022-12-13T19:47:21.636Z,-0.08
2022-12-13T19:49:51.749Z,-0.08
2022-12-13T19:52:20.150Z,-0.05
2022-12-13T19:54:48.137Z,-0.04
2022-12-13T19:57:17.390Z,-0.05
2022-12-13T19:59:45.937Z,-0.18
2022-12-13T20:02:15.531Z,-0.14
2022-12-13T20:04:44.789Z,-0.09
2022-12-13T20:07:14.161Z,-0.08
2022-12-13T20:09:42.370Z,-0.04
2022-12-13T20:12:10.234Z,-0.01
2022-12-13T20:14:38.303Z,0.01
2022-12-13T20:17:06.580Z,0.04
2022-12-13T20:19:37.286Z,0.00
2022-12-13T20:22:05.626Z,-0.04
2022-12-13T20:24:45.868Z,-0.05
2022-12-13T20:27:30.377Z,-0.06
2022-12-13T20:29:58.595Z,-0.06
2022-12-13T20:32:28.924Z,-0.09
2022-12-13T20:35:13.313Z,-0.04
2022-12-13T20:37:59.789Z,-0.08
2022-12-13T20:40:29.574Z,-0.04
2022-12-13T20:42:57.679Z,-0.05
2022-12-13T20:45:34.949Z,-0.04
2022-12-13T20:48:08.757Z,-0.04
2022-12-13T20:50:40.288Z,-0.09
2022-12-13T20:53:09.770Z,-0.15
2022-12-13T20:55:39.365Z,-0.14
2022-12-13T20:58:07.366Z,-0.11
2022-12-13T21:00:37.585Z,-0.12
2022-12-13T21:03:23.532Z,-0.11
2022-12-13T21:05:53.802Z,-0.11
2022-12-13T21:08:38.879Z,-0.10
2022-12-13T21:11:26.919Z,-0.12
2022-12-13T21:14:25.960Z,-0.16
2022-12-13T21:17:15.163Z,-0.15
2022-12-13T21:21:02.383Z,-0.18
2022-12-13T21:30:33.144Z,-0.19
2022-12-13T21:33:00.997Z,-0.19
2022-12-13T21:35:28.866Z,-0.19
2022-12-13T21:38:02.153Z,-0.18
2022-12-13T21:40:32.941Z,-0.21
2022-12-13T21:43:00.710Z,-0.23
2022-12-13T21:45:28.586Z,-0.26
2022-12-13T21:47:57.987Z,-0.32
2022-12-13T21:50:25.791Z,-0.35
2022-12-13T21:52:53.617Z,-0.38
2022-12-13T21:58:24.654Z,-0.38
2022-12-13T22:00:52.774Z,-0.36
2022-12-13T22:03:22.077Z,-0.33
2022-12-13T22:05:49.848Z,-0.30
2022-12-13T22:08:17.710Z,-0.29
2022-12-13T22:10:59.370Z,-0.31
2022-12-13T22:13:48.423Z,-0.29
2022-12-13T22:16:36.274Z,-0.30
2022-12-13T22:19:05.725Z,-0.36
2022-12-13T22:21:33.879Z,-0.31
2022-12-13T22:24:01.766Z,-0.33
2022-12-13T22:26:29.709Z,-0.32
2022-12-13T22:29:00.710Z,-0.29
2022-12-13T22:31:30.066Z,-0.30
2022-12-13T22:33:58.490Z,-0.38
2022-12-13T22:36:27.856Z,-0.31
2022-12-13T22:38:55.706Z,-0.32
2022-12-13T22:41:23.606Z,-0.32
2022-12-13T22:43:51.586Z,-0.32
2022-12-13T22:46:20.951Z,-0.31
2022-12-13T22:48:51.755Z,-0.31
2022-12-13T22:51:20.531Z,-0.31
2022-12-13T22:53:51.480Z,-0.28
2022-12-13T22:56:23.102Z,-0.32
2022-12-13T22:58:54.325Z,-0.39
2022-12-13T23:01:25.178Z,-0.34
2022-12-13T23:03:53.660Z,-0.29
2022-12-13T23:06:24.444Z,-0.36
2022-12-13T23:08:56.292Z,-0.34
2022-12-13T23:11:42.424Z,-0.27
2022-12-13T23:14:13.149Z,-0.22
2022-12-13T23:16:42.501Z,-0.21
2022-12-13T23:19:40.511Z,-0.21
2022-12-13T23:22:00.519Z,-0.27
2022-12-13T23:24:30.026Z,-0.27
2022-12-13T23:26:58.060Z,-0.28
2022-12-13T23:29:26.160Z,-0.28
2022-12-13T23:31:54.047Z,-0.30
2022-12-13T23:34:22.016Z,-0.30
2022-12-13T23:36:50.024Z,-0.27
2022-12-13T23:39:18.116Z,-0.25
2022-12-13T23:41:47.780Z,-0.27
2022-12-13T23:44:15.639Z,-0.31
2022-12-13T23:46:48.196Z,-0.40
2022-12-13T23:49:17.162Z,-0.43
2022-12-13T23:51:45.290Z,-0.45
2022-12-13T23:54:17.931Z,-0.45
2022-12-13T23:56:47.601Z,-0.43
2022-12-13T23:59:15.901Z,-0.48
